createdAt,value
2022-12-29T00:03:38.677Z,64.18
2022-12-29T00:07:40.349Z,63.72
2022-12-29T00:11:42.293Z,63.82
2022-12-29T00:15:43.939Z,61.84
2022-12-29T00:20:04.386Z,60.24
2022-12-29T00:24:25.849Z,58.78
2022-12-29T00:28:45.921Z,57.57
2022-12-29T00:33:06.171Z,57.02
2022-12-29T00:37:08.778Z,56.05
2022-12-29T00:41:28.816Z,56.06
2022-12-29T00:45:30.346Z,55.54
2022-12-29T00:49:32.215Z,55.51
2022-12-29T00:53:34.459Z,55.70
2022-12-29T00:57:36.025Z,57.52
2022-12-29T01:01:39.004Z,58.73
2022-12-29T01:05:40.632Z,58.76
2022-12-29T01:10:00.847Z,59.49
2022-12-29T01:14:02.426Z,59.74
2022-12-29T01:18:05.519Z,61.03
2022-12-29T01:22:07.110Z,63.17
2022-12-29T01:26:13.591Z,64.51
2022-12-29T01:30:15.858Z,63.91
2022-12-29T01:34:19.163Z,63.16
2022-12-29T01:38:20.845Z,62.34
2022-12-29T01:42:25.459Z,62.63
2022-12-29T01:46:37.815Z,62.52
2022-12-29T01:50:44.713Z,62.73
2022-12-29T01:54:53.375Z,64.83
2022-12-29T01:59:04.933Z,64.15
2022-12-29T02:03:07.724Z,65.22
2022-12-29T02:07:19.191Z,65.65
2022-12-29T02:11:22.525Z,66.00
2022-12-29T02:15:36.781Z,66.47
2022-12-29T02:20:28.473Z,67.41
2022-12-29T02:25:06.043Z,67.48
2022-12-29T02:29:22.858Z,67.13
2022-12-29T02:33:49.230Z,67.33
2022-12-29T02:38:20.033Z,67.88
2022-12-29T02:42:42.293Z,67.38
2022-12-29T02:46:54.453Z,67.44
2022-12-29T02:51:05.591Z,67.08
2022-12-29T02:55:07.925Z,66.87
2022-12-29T02:59:10.546Z,64.61
2022-12-29T03:03:27.377Z,63.66
2022-12-29T03:07:54.091Z,62.74
2022-12-29T03:12:16.491Z,62.43
2022-12-29T03:16:23.968Z,61.79
2022-12-29T03:20:37.938Z,60.79
2022-12-29T03:24:43.057Z,60.28
2022-12-29T03:28:52.697Z,59.79
2022-12-29T03:32:59.547Z,59.36
2022-12-29T03:37:11.261Z,58.54
2022-12-29T03:41:18.053Z,59.36
2022-12-29T03:45:20.749Z,59.79
2022-12-29T03:49:22.264Z,60.85
2022-12-29T03:53:28.284Z,61.81
2022-12-29T03:57:29.891Z,61.87
2022-12-29T04:01:39.252Z,62.64
2022-12-29T04:05:40.916Z,62.66
2022-12-29T04:09:42.570Z,62.68
2022-12-29T04:13:48.039Z,62.47
2022-12-29T04:17:54.020Z,62.74
2022-12-29T04:21:55.708Z,63.60
2022-12-29T04:25:57.443Z,62.86
2022-12-29T04:30:00.361Z,62.40
2022-12-29T04:34:20.585Z,62.53
2022-12-29T04:38:24.860Z,62.53
2022-12-29T04:42:26.994Z,62.58
2022-12-29T04:46:29.426Z,61.85
2022-12-29T04:50:36.935Z,62.44
2022-12-29T04:54:52.660Z,61.38
2022-12-29T04:58:55.946Z,62.11
2022-12-29T05:02:58.005Z,63.03
2022-12-29T05:07:00.652Z,64.87
2022-12-29T05:11:03.119Z,65.09
2022-12-29T05:15:07.297Z,65.39
2022-12-29T05:19:09.646Z,65.21
2022-12-29T05:23:11.302Z,64.82
2022-12-29T05:27:13.577Z,65.88
2022-12-29T05:31:23.625Z,65.49
2022-12-29T05:35:25.311Z,64.63
2022-12-29T05:39:26.934Z,64.46
2022-12-29T05:43:33.180Z,63.69
2022-12-29T05:47:46.732Z,62.87
2022-12-29T05:52:06.641Z,63.46
2022-12-29T05:56:09.176Z,62.85
2022-12-29T06:00:15.301Z,62.02
2022-12-29T06:04:18.302Z,62.67
2022-12-29T06:08:19.793Z,62.10
2022-12-29T06:12:23.443Z,62.05
2022-12-29T06:16:27.895Z,61.96
2022-12-29T06:20:33.085Z,61.76
2022-12-29T06:24:34.640Z,62.46
2022-12-29T06:28:36.191Z,62.14
2022-12-29T06:32:38.115Z,62.20
2022-12-29T06:36:42.916Z,61.96
2022-12-29T06:40:45.902Z,61.55
2022-12-29T06:45:08.249Z,61.90
2022-12-29T06:49:09.860Z,61.43
2022-12-29T06:53:11.428Z,61.12
2022-12-29T06:57:13.171Z,61.48
2022-12-29T07:01:15.029Z,61.35
2022-12-29T07:05:16.582Z,61.34
2022-12-29T07:09:18.526Z,61.71
2022-12-29T07:13:20.241Z,62.07
2022-12-29T07:17:21.736Z,62.23
2022-12-29T07:21:23.626Z,62.16
2022-12-29T07:25:25.198Z,62.34
2022-12-29T07:29:26.843Z,61.99
2022-12-29T07:33:32.189Z,61.35
2022-12-29T07:37:35.078Z,60.99
2022-12-29T07:41:36.741Z,60.46
2022-12-29T07:45:38.493Z,60.32
2022-12-29T07:49:46.154Z,60.54
2022-12-29T07:53:48.049Z,60.75
2022-12-29T07:57:49.561Z,60.22
2022-12-29T08:01:51.516Z,59.63
2022-12-29T08:05:53.468Z,58.60
2022-12-29T08:09:55.158Z,58.48
2022-12-29T08:13:56.785Z,57.91
2022-12-29T08:17:58.310Z,56.98
2022-12-29T08:21:59.951Z,56.21
2022-12-29T08:26:04.275Z,55.01
2022-12-29T08:30:06.579Z,54.60
2022-12-29T08:34:08.121Z,54.24
2022-12-29T08:38:12.140Z,53.55
2022-12-29T08:42:13.692Z,53.28
2022-12-29T08:46:16.054Z,53.25
2022-12-29T08:50:17.807Z,53.19
2022-12-29T08:54:19.254Z,53.83
2022-12-29T08:58:21.127Z,54.23
2022-12-29T09:02:24.742Z,54.74
2022-12-29T09:06:26.618Z,54.86
2022-12-29T09:10:28.211Z,54.97
2022-12-29T09:14:29.936Z,54.57
2022-12-29T09:18:32.934Z,54.44
2022-12-29T09:22:34.569Z,54.34
2022-12-29T09:26:37.131Z,54.54
2022-12-29T09:30:40.285Z,54.51
2022-12-29T09:34:42.009Z,54.24
2022-12-29T09:38:43.552Z,53.60
2022-12-29T09:43:02.085Z,53.25
2022-12-29T09:47:04.131Z,53.10
2022-12-29T09:51:12.519Z,52.95
2022-12-29T09:55:22.044Z,51.91
2022-12-29T09:59:30.969Z,49.89
2022-12-29T10:03:47.741Z,50.90
2022-12-29T10:08:01.443Z,47.84
2022-12-29T10:12:52.200Z,42.88
2022-12-29T10:17:31.820Z,43.64
2022-12-29T10:21:54.320Z,43.22
2022-12-29T10:25:57.789Z,38.05
2022-12-29T10:30:01.879Z,35.22
2022-12-29T10:34:15.057Z,38.61
2022-12-29T10:38:26.180Z,35.94
2022-12-29T10:42:42.186Z,35.68
2022-12-29T10:46:45.029Z,36.89
2022-12-29T10:50:46.957Z,35.09
2022-12-29T10:55:03.036Z,36.53
2022-12-29T10:59:16.996Z,34.18
2022-12-29T11:03:50.804Z,31.24
2022-12-29T11:07:58.143Z,29.38
2022-12-29T11:11:59.996Z,28.72
2022-12-29T11:16:03.703Z,31.27
2022-12-29T11:20:28.184Z,39.07
2022-12-29T11:24:30.622Z,41.79
2022-12-29T11:28:34.142Z,44.89
2022-12-29T11:32:35.705Z,45.84
2022-12-29T11:36:37.433Z,46.39
2022-12-29T11:40:40.710Z,48.56
2022-12-29T11:44:48.222Z,46.50
2022-12-29T11:48:50.133Z,46.30
2022-12-29T11:52:59.608Z,43.99
2022-12-29T11:57:12.896Z,38.58
2022-12-29T12:01:25.228Z,41.42
2022-12-29T12:05:31.855Z,43.27
2022-12-29T12:09:38.129Z,45.97
2022-12-29T12:14:03.377Z,47.14
2022-12-29T12:18:35.375Z,48.76
2022-12-29T12:22:46.354Z,48.05
2022-12-29T12:27:02.072Z,47.61
2022-12-29T12:31:16.476Z,47.47
2022-12-29T12:35:42.344Z,46.49
2022-12-29T12:40:12.354Z,46.05
2022-12-29T12:44:20.598Z,46.00
2022-12-29T12:48:57.451Z,46.69
2022-12-29T12:52:59.131Z,46.52
2022-12-29T12:57:07.644Z,46.80
2022-12-29T13:01:15.733Z,46.79
2022-12-29T13:05:44.088Z,46.71
2022-12-29T13:10:03.850Z,46.90
2022-12-29T13:14:29.058Z,44.85
2022-12-29T13:19:00.474Z,44.00
2022-12-29T13:23:18.258Z,35.61
2022-12-29T13:27:44.772Z,35.26
2022-12-29T13:32:04.214Z,38.28
2022-12-29T13:36:38.337Z,40.63
2022-12-29T13:40:46.254Z,43.03
2022-12-29T13:44:54.566Z,45.11
2022-12-29T13:49:05.968Z,45.19
2022-12-29T13:53:28.620Z,45.58
2022-12-29T13:57:50.997Z,45.71
2022-12-29T14:02:04.718Z,46.51
2022-12-29T14:06:17.082Z,47.22
2022-12-29T14:10:39.029Z,47.84
2022-12-29T14:14:40.847Z,48.12
2022-12-29T14:18:46.579Z,48.27
2022-12-29T14:23:10.438Z,48.80
2022-12-29T14:27:13.127Z,49.19
2022-12-29T14:31:14.800Z,49.17
2022-12-29T14:35:54.726Z,49.28
2022-12-29T14:40:20.175Z,49.73
2022-12-29T14:44:22.056Z,49.86
2022-12-29T14:48:46.334Z,50.31
2022-12-29T14:53:02.869Z,49.85
2022-12-29T14:57:11.779Z,50.36
2022-12-29T15:01:34.601Z,50.67
2022-12-29T15:05:47.301Z,51.25
2022-12-29T15:09:57.326Z,51.22
2022-12-29T15:13:59.220Z,51.25
2022-12-29T15:18:15.690Z,51.75
2022-12-29T15:22:17.763Z,51.97
2022-12-29T15:26:23.648Z,51.60
2022-12-29T15:30:25.899Z,52.67
2022-12-29T15:34:31.103Z,53.20
2022-12-29T15:38:40.052Z,53.37
2022-12-29T15:42:57.304Z,53.16
2022-12-29T15:47:04.020Z,53.98
2022-12-29T15:51:26.520Z,52.14
2022-12-29T15:55:41.003Z,51.11
2022-12-29T15:59:48.172Z,56.46
2022-12-29T16:03:52.825Z,51.93
2022-12-29T16:08:01.603Z,52.62
2022-12-29T16:12:18.090Z,57.79
2022-12-29T16:16:26.697Z,53.14
2022-12-29T16:20:55.900Z,52.73
2022-12-29T16:25:04.907Z,53.40
2022-12-29T16:29:09.073Z,54.58
2022-12-29T16:33:36.604Z,54.50
2022-12-29T16:37:38.947Z,54.20
2022-12-29T16:41:40.579Z,53.30
2022-12-29T16:45:48.160Z,55.58
2022-12-29T16:49:53.962Z,53.37
2022-12-29T16:53:56.729Z,53.60
2022-12-29T16:58:00.047Z,56.16
2022-12-29T17:02:07.893Z,53.71
2022-12-29T17:06:16.573Z,54.11
2022-12-29T17:10:18.329Z,55.15
2022-12-29T17:14:22.805Z,58.29
2022-12-29T17:18:24.346Z,55.21
2022-12-29T17:22:30.115Z,56.02
2022-12-29T17:26:31.819Z,56.27
2022-12-29T17:30:36.062Z,56.05
2022-12-29T17:34:37.823Z,56.60
2022-12-29T17:38:39.560Z,57.12
2022-12-29T17:42:49.581Z,57.32
2022-12-29T17:46:51.358Z,57.44
2022-12-29T17:50:54.385Z,57.71
2022-12-29T17:54:56.803Z,58.36
2022-12-29T17:58:58.439Z,58.38
2022-12-29T18:03:00.270Z,59.27
2022-12-29T18:07:02.371Z,59.17
2022-12-29T18:11:04.906Z,59.98
2022-12-29T18:15:16.369Z,59.53
2022-12-29T18:19:17.955Z,59.56
2022-12-29T18:23:19.794Z,59.73
2022-12-29T18:27:22.248Z,59.52
2022-12-29T18:31:37.347Z,60.02
2022-12-29T18:35:42.024Z,59.69
2022-12-29T18:39:43.707Z,60.08
2022-12-29T18:43:45.965Z,60.17
2022-12-29T18:47:47.723Z,60.23
2022-12-29T18:51:49.435Z,59.92
2022-12-29T18:55:52.608Z,60.65
2022-12-29T18:59:54.238Z,60.88
2022-12-29T19:03:55.890Z,60.71
2022-12-29T19:07:57.519Z,60.66
2022-12-29T19:11:59.503Z,60.14
2022-12-29T19:16:01.177Z,60.35
2022-12-29T19:20:04.025Z,60.80
2022-12-29T19:24:06.265Z,60.85
2022-12-29T19:28:15.921Z,60.49
2022-12-29T19:32:17.523Z,61.22
2022-12-29T19:36:20.914Z,60.86
2022-12-29T19:40:26.672Z,61.66
2022-12-29T19:44:28.160Z,62.10
2022-12-29T19:48:29.887Z,62.14
2022-12-29T19:52:32.246Z,62.56
2022-12-29T19:56:34.209Z,62.40
2022-12-29T20:00:37.985Z,62.62
2022-12-29T20:04:39.669Z,62.54
2022-12-29T20:08:41.497Z,63.36
2022-12-29T20:12:43.098Z,63.64
2022-12-29T20:17:09.413Z,64.16
2022-12-29T20:21:16.293Z,64.22
2022-12-29T20:25:53.809Z,64.38
2022-12-29T20:29:42.778Z,64.51
2022-12-29T20:33:47.777Z,64.36
2022-12-29T20:37:50.558Z,64.22
2022-12-29T20:41:52.037Z,64.62
2022-12-29T20:45:53.890Z,64.64
2022-12-29T20:49:55.481Z,65.26
2022-12-29T20:53:57.982Z,65.20
2022-12-29T21:02:23.273Z,62.42
2022-12-29T21:06:25.004Z,61.87
2022-12-29T21:10:26.946Z,61.97
2022-12-29T21:14:29.080Z,61.80
2022-12-29T21:18:31.195Z,61.36
2022-12-29T21:22:32.977Z,61.52
2022-12-29T21:26:34.811Z,61.46
2022-12-29T21:30:36.769Z,61.15
2022-12-29T21:34:38.910Z,61.50
2022-12-29T21:38:41.899Z,61.09
2022-12-29T21:42:43.684Z,61.35
2022-12-29T21:46:47.774Z,61.56
2022-12-29T21:51:14.147Z,64.56
2022-12-29T21:55:15.731Z,61.87
2022-12-29T21:59:36.009Z,61.55
2022-12-29T22:03:57.284Z,61.88
2022-12-29T22:08:18.521Z,62.12
2022-12-29T22:12:39.315Z,64.52
2022-12-29T22:16:40.956Z,63.27
2022-12-29T22:20:42.528Z,62.66
2022-12-29T22:24:44.302Z,62.85
2022-12-29T22:28:46.224Z,63.05
2022-12-29T22:32:47.794Z,62.60
2022-12-29T22:36:49.324Z,62.20
2022-12-29T22:40:50.994Z,64.07
2022-12-29T22:44:52.453Z,62.17
2022-12-29T22:48:54.049Z,62.01
2022-12-29T22:52:55.560Z,62.17
2022-12-29T22:56:57.474Z,62.70
2022-12-29T23:00:59.413Z,62.06
2022-12-29T23:05:04.429Z,61.59
2022-12-29T23:09:17.176Z,61.28
2022-12-29T23:13:19.493Z,61.63
2022-12-29T23:17:21.108Z,61.66
2022-12-29T23:21:22.801Z,60.93
2022-12-29T23:25:24.324Z,61.01
2022-12-29T23:29:26.001Z,61.44
2022-12-29T23:33:27.737Z,61.38
2022-12-29T23:37:29.392Z,62.31
2022-12-29T23:41:31.277Z,61.57
2022-12-29T23:45:35.990Z,61.53
2022-12-29T23:49:37.661Z,61.43
2022-12-29T23:53:41.238Z,61.21
2022-12-29T23:57:42.755Z,61.42
